Cassville, Missouri
Current Conditions -  °F | °C
As of 1:55 PM on Sunday 21 Dec 2014 (Local Time) from KHFJ Reporting Station
Overcast Overcast  
Wind Chill:   Ceiling: 1300
Heat Index:   Visibility: 10mi
Dew Point:   Wind: 15mph
Humidity: 81%   Direction: 160°SSE
Pressure: 29.92"   Gusts: NA
Location:  36.68°N, 93.87°W
Report Text: KHFJ 211955Z AUTO 16013KT 10SM OVC013 06/03 A2992 RMK AO2
Loading
Personal Weather Stations






























Interactive Weather Map New forecast layout! Learn more

10-Day Weather Forecast

Advertisements
Track Severe Weather on mobile